Time;durP1;ratioP1;P1;durP2;ratioP2;P2;SDS_P1;SDS_P2;PMS_P1;PMS_P2;Temp;Humidity;BMP_temperature;BMP_pressure;BME280_temperature;BME280_humidity;BME280_pressure;Samples;Min_cycle;Max_cycle;Signal;HPM_P1;HPM_P2
2023/03/29 00:00:12;;;;;;;28.10;6.37;;;14.40;53.40;;;;;;5068816;28;20700;-89
2023/03/29 00:02:39;;;;;;;34.67;7.33;;;14.40;53.40;;;;;;5069082;28;20202;-89
2023/03/29 00:05:09;;;;;;;29.23;6.33;;;14.40;53.40;;;;;;5069594;28;20560;-90
2023/03/29 00:07:36;;;;;;;36.63;7.30;;;14.40;53.50;;;;;;5070010;28;20203;-90
2023/03/29 00:10:04;;;;;;;29.60;6.53;;;14.40;53.50;;;;;;5069788;28;20214;-90
2023/03/29 00:12:31;;;;;;;35.30;7.13;;;14.40;53.50;;;;;;5065242;28;20226;-90
2023/03/29 00:14:58;;;;;;;32.20;7.63;;;14.50;53.60;;;;;;5069583;28;20203;-89
2023/03/29 00:17:25;;;;;;;36.43;7.67;;;14.40;53.50;;;;;;5050745;28;20200;-89
2023/03/29 00:19:52;;;;;;;25.50;6.73;;;14.40;53.50;;;;;;5059138;28;20675;-91
2023/03/29 00:22:20;;;;;;;33.70;6.87;;;14.50;53.60;;;;;;5069172;28;20211;-90
2023/03/29 00:24:48;;;;;;;29.30;6.57;;;14.40;53.50;;;;;;5069186;28;20513;-89
2023/03/29 00:27:15;;;;;;;31.93;6.47;;;14.40;53.80;;;;;;5069755;28;20209;-89
2023/03/29 00:29:42;;;;;;;30.30;6.80;;;14.40;53.80;;;;;;5069544;28;20207;-90
2023/03/29 00:32:09;;;;;;;40.23;7.70;;;14.50;53.70;;;;;;5067878;28;20297;-90
2023/03/29 00:34:36;;;;;;;32.10;7.10;;;14.50;53.70;;;;;;5048961;28;20229;-89
2023/03/29 00:37:07;;;;;;;29.40;5.83;;;14.40;53.60;;;;;;5063702;28;20854;-90
2023/03/29 00:39:36;;;;;;;24.40;6.20;;;14.50;53.60;;;;;;5069204;28;20206;-88
2023/03/29 00:42:03;;;;;;;22.33;6.47;;;14.50;53.60;;;;;;5063244;28;20216;-89
2023/03/29 00:44:57;;;;;;;34.70;7.33;;;14.50;53.60;;;;;;5050016;28;20630;-90
2023/03/29 00:47:27;;;;;;;27.67;6.27;;;14.50;53.60;;;;;;5057861;28;20773;-90
2023/03/29 00:49:58;;;;;;;39.97;7.50;;;14.50;53.60;;;;;;5054389;28;20602;-89
2023/03/29 00:52:29;;;;;;;29.50;6.77;;;14.50;53.50;;;;;;5070144;28;20529;-89
2023/03/29 00:55:00;;;;;;;21.70;6.00;;;14.50;53.60;;;;;;5070979;28;20230;-89
2023/03/29 00:57:30;;;;;;;28.10;7.00;;;14.40;53.50;;;;;;5070585;28;20222;-90
2023/03/29 00:59:59;;;;;;;50.73;8.47;;;14.50;53.60;;;;;;5069169;28;20269;-91
2023/03/29 01:02:33;;;;;;;28.77;6.63;;;14.50;53.60;;;;;;5070544;28;20205;-91
2023/03/29 01:05:05;;;;;;;37.07;7.03;;;14.50;53.60;;;;;;5068747;28;20289;-91
2023/03/29 01:07:38;;;;;;;34.63;7.57;;;14.50;53.60;;;;;;5068624;28;20242;-92
2023/03/29 01:10:11;;;;;;;28.50;6.50;;;14.40;53.60;;;;;;5067698;28;20203;-90
2023/03/29 01:12:43;;;;;;;26.17;6.23;;;14.50;53.60;;;;;;5069121;28;20223;-90
2023/03/29 01:15:12;;;;;;;28.30;6.60;;;14.40;53.60;;;;;;5060012;28;20224;-89
2023/03/29 01:17:42;;;;;;;33.83;7.00;;;14.40;53.60;;;;;;5068660;28;20547;-90
2023/03/29 01:20:16;;;;;;;29.63;6.57;;;14.50;53.70;;;;;;5068431;28;20237;-90
2023/03/29 01:23:04;;;;;;;33.07;6.93;;;14.40;53.60;;;;;;5068632;28;20200;-90
2023/03/29 01:25:38;;;;;;;28.80;6.37;;;14.40;54.10;;;;;;5068597;28;20264;-89
2023/03/29 01:28:11;;;;;;;32.93;6.83;;;14.50;53.60;;;;;;5067798;28;20580;-89
2023/03/29 01:30:43;;;;;;;31.80;7.23;;;14.40;53.60;;;;;;5066200;28;20204;-90
2023/03/29 01:33:19;;;;;;;30.07;7.00;;;14.40;53.60;;;;;;5068843;28;20199;-90
2023/03/29 01:35:53;;;;;;;28.13;6.67;;;14.40;53.60;;;;;;5068644;28;20274;-88
2023/03/29 01:38:26;;;;;;;32.30;7.07;;;14.50;53.70;;;;;;5067114;28;20278;-90
2023/03/29 01:40:53;;;;;;;33.27;7.17;;;14.50;53.70;;;;;;5060241;28;20243;-90
2023/03/29 01:43:27;;;;;;;49.97;8.00;;;14.40;53.60;;;;;;5066279;28;20199;-90
2023/03/29 01:46:02;;;;;;;32.43;7.00;;;14.50;53.70;;;;;;5068173;28;20290;-90
2023/03/29 01:48:32;;;;;;;23.60;5.97;;;14.50;53.70;;;;;;5068407;28;20213;-90
2023/03/29 01:51:05;;;;;;;41.83;7.23;;;14.50;53.70;;;;;;5068232;28;20202;-90
2023/03/29 01:53:38;;;;;;;27.17;6.87;;;14.50;53.70;;;;;;5066190;28;20207;-90
2023/03/29 01:56:10;;;;;;;22.43;6.40;;;14.40;53.70;;;;;;5068157;28;20204;-90
2023/03/29 01:58:42;;;;;;;25.77;6.17;;;14.50;53.70;;;;;;5066379;28;20928;-89
2023/03/29 02:01:11;;;;;;;45.07;7.93;;;14.40;53.60;;;;;;5068490;28;20220;-90
2023/03/29 02:03:42;;;;;;;34.33;6.97;;;14.40;53.60;;;;;;5072166;28;20211;-90
2023/03/29 02:06:10;;;;;;;40.93;7.03;;;14.40;53.60;;;;;;5072112;28;20201;-90
2023/03/29 02:08:39;;;;;;;24.83;6.03;;;14.50;53.70;;;;;;5068945;28;20210;-91
2023/03/29 02:11:07;;;;;;;28.90;6.53;;;14.40;53.70;;;;;;5071432;28;20607;-90
2023/03/29 02:13:34;;;;;;;34.80;6.73;;;14.50;53.80;;;;;;5051890;28;20208;-90
2023/03/29 02:16:04;;;;;;;31.37;6.90;;;14.50;53.80;;;;;;5068134;28;20289;-90
2023/03/29 02:18:31;;;;;;;34.97;7.13;;;14.40;53.70;;;;;;5071874;28;20193;-90
2023/03/29 02:20:59;;;;;;;37.97;7.17;;;14.50;53.80;;;;;;5069710;28;20720;-90
2023/03/29 02:23:34;;;;;;;37.53;7.40;;;14.50;53.80;;;;;;5071563;28;20649;-90
2023/03/29 02:26:05;;;;;;;29.33;6.30;;;14.50;53.80;;;;;;5071730;28;20186;-90
2023/03/29 02:28:33;;;;;;;29.87;6.83;;;14.50;53.80;;;;;;5071772;28;20203;-90
2023/03/29 02:31:07;;;;;;;31.83;6.57;;;14.50;53.80;;;;;;5072175;28;20203;-92
2023/03/29 02:33:45;;;;;;;27.43;6.20;;;14.50;53.80;;;;;;5051399;28;20556;-91
2023/03/29 02:36:29;;;;;;;30.07;6.70;;;14.50;53.80;;;;;;5062940;28;20193;-90
2023/03/29 02:38:59;;;;;;;34.70;6.70;;;14.50;53.80;;;;;;5071715;28;20191;-90
2023/03/29 02:41:27;;;;;;;50.40;7.87;;;14.50;53.80;;;;;;5070910;28;20318;-90
2023/03/29 02:43:55;;;;;;;36.57;7.33;;;14.50;53.80;;;;;;5071719;28;20195;-91
2023/03/29 02:46:24;;;;;;;41.87;7.33;;;14.50;53.90;;;;;;5070872;28;20206;-91
2023/03/29 02:48:53;;;;;;;32.63;6.33;;;14.50;53.90;;;;;;5070303;28;20670;-91
2023/03/29 02:51:24;;;;;;;31.43;6.47;;;14.50;53.90;;;;;;5071477;28;20293;-90
2023/03/29 02:53:57;;;;;;;44.03;7.57;;;14.50;53.90;;;;;;5070557;28;20671;-92
2023/03/29 02:56:24;;;;;;;35.77;7.10;;;14.50;53.90;;;;;;5071206;28;20311;-91
2023/03/29 02:58:50;;;;;;;21.87;6.37;;;14.50;53.90;;;;;;5071518;28;20204;-91
2023/03/29 03:01:19;;;;;;;34.77;7.13;;;14.50;53.90;;;;;;5066248;28;20228;-92
2023/03/29 03:03:49;;;;;;;33.53;6.73;;;14.50;53.90;;;;;;5070248;28;20209;-90
2023/03/29 03:06:17;;;;;;;37.00;7.27;;;14.50;53.90;;;;;;5069796;28;20294;-91
2023/03/29 03:08:44;;;;;;;28.80;6.57;;;14.50;54.00;;;;;;5070884;28;20684;-91
2023/03/29 03:11:11;;;;;;;31.27;6.47;;;14.50;53.90;;;;;;5070844;28;20258;-92
2023/03/29 03:13:38;;;;;;;23.57;6.27;;;14.50;53.90;;;;;;5069562;28;20203;-90
2023/03/29 03:16:06;;;;;;;33.23;6.63;;;14.50;53.90;;;;;;5064695;28;20218;-91
2023/03/29 03:18:33;;;;;;;28.63;6.40;;;14.50;54.00;;;;;;5071102;28;20572;-93
2023/03/29 03:21:03;;;;;;;31.23;6.67;;;14.50;54.00;;;;;;5071058;28;20263;-90
2023/03/29 03:23:30;;;;;;;30.57;7.20;;;14.50;54.00;;;;;;5068901;28;20209;-90
2023/03/29 03:25:58;;;;;;;36.30;6.93;;;14.50;54.00;;;;;;5070173;28;20235;-91
2023/03/29 03:28:26;;;;;;;33.97;7.30;;;14.50;54.00;;;;;;5070333;28;20203;-91
2023/03/29 03:30:53;;;;;;;31.77;7.00;;;14.50;54.00;;;;;;5069265;28;20208;-92
2023/03/29 03:33:20;;;;;;;35.57;7.73;;;14.50;54.00;;;;;;5070029;28;20197;-90
2023/03/29 03:35:46;;;;;;;26.50;6.43;;;14.50;54.00;;;;;;5070988;28;20302;-91
2023/03/29 03:38:15;;;;;;;37.37;7.27;;;14.50;54.00;;;;;;5070774;28;20195;-91
2023/03/29 03:40:42;;;;;;;33.07;6.87;;;14.50;54.00;;;;;;5056511;28;20246;-90
2023/03/29 03:43:09;;;;;;;35.37;7.47;;;14.60;54.10;;;;;;5050269;28;20211;-92
2023/03/29 03:45:36;;;;;;;25.90;6.23;;;14.70;54.10;;;;;;5066856;28;20631;-92
2023/03/29 03:48:03;;;;;;;32.40;6.43;;;14.60;54.10;;;;;;5070050;28;20198;-93
2023/03/29 03:50:32;;;;;;;29.20;6.37;;;14.60;54.10;;;;;;5069489;28;20203;-93
2023/03/29 03:52:59;;;;;;;25.43;6.67;;;14.60;54.10;;;;;;5070634;28;20222;-90
2023/03/29 03:55:28;;;;;;;30.73;6.70;;;14.60;54.10;;;;;;5067277;28;20218;-90
2023/03/29 03:57:56;;;;;;;20.13;6.03;;;14.60;54.80;;;;;;5067955;28;20772;-90
2023/03/29 04:00:22;;;;;;;25.83;6.17;;;14.70;54.30;;;;;;5069101;28;20313;-90
2023/03/29 04:02:50;;;;;;;26.70;6.83;;;14.60;54.10;;;;;;5069490;28;20227;-90
2023/03/29 04:05:18;;;;;;;36.57;7.23;;;14.60;54.20;;;;;;5069501;28;20642;-91
2023/03/29 04:07:46;;;;;;;38.10;7.73;;;14.60;54.20;;;;;;5068599;28;20651;-90
2023/03/29 04:10:12;;;;;;;33.10;7.17;;;14.60;54.20;;;;;;5069273;28;20195;-90
2023/03/29 04:12:41;;;;;;;30.43;6.20;;;14.60;54.20;;;;;;5068938;28;20223;-91
2023/03/29 04:15:09;;;;;;;30.63;6.90;;;14.60;54.20;;;;;;5068747;28;20656;-91
2023/03/29 04:17:36;;;;;;;26.07;6.40;;;14.60;54.20;;;;;;5069054;28;20263;-91
2023/03/29 04:20:10;;;;;;;28.80;5.90;;;14.70;54.30;;;;;;5069555;28;20214;-90
2023/03/29 04:22:37;;;;;;;30.77;6.50;;;14.70;54.30;;;;;;5072589;28;20227;-91
2023/03/29 04:25:05;;;;;;;29.10;6.47;;;14.70;54.20;;;;;;5072496;28;20203;-90
2023/03/29 04:27:32;;;;;;;28.00;6.50;;;14.70;54.20;;;;;;5069347;28;20648;-92
2023/03/29 04:30:01;;;;;;;29.07;6.70;;;14.70;54.20;;;;;;5068819;28;20212;-91
2023/03/29 04:32:28;;;;;;;31.27;6.50;;;14.70;54.30;;;;;;5069197;28;20573;-90
2023/03/29 04:34:54;;;;;;;29.63;6.37;;;14.70;54.30;;;;;;5069101;28;20197;-90
2023/03/29 04:37:21;;;;;;;55.50;8.60;;;14.70;54.30;;;;;;5069175;28;20699;-90
2023/03/29 04:39:49;;;;;;;27.67;6.73;;;14.70;54.20;;;;;;5069261;28;20211;-89
2023/03/29 04:42:16;;;;;;;36.73;7.00;;;14.70;54.30;;;;;;5069430;28;20893;-90
2023/03/29 04:44:43;;;;;;;23.37;6.03;;;14.70;54.30;;;;;;5068911;28;20207;-90
2023/03/29 04:47:13;;;;;;;38.80;7.47;;;14.70;54.30;;;;;;5068441;28;20200;-90
2023/03/29 04:49:40;;;;;;;36.30;7.07;;;14.70;54.30;;;;;;5065524;28;20591;-90
2023/03/29 04:52:07;;;;;;;27.60;6.13;;;14.80;54.30;;;;;;5048735;28;20204;-91
2023/03/29 04:54:36;;;;;;;27.13;6.27;;;14.70;54.30;;;;;;5049544;28;20180;-93
2023/03/29 04:57:02;;;;;;;33.00;6.90;;;14.70;54.30;;;;;;5060678;28;20202;-90
2023/03/29 04:59:35;;;;;;;30.53;6.70;;;14.70;54.30;;;;;;5068909;28;20203;-90
2023/03/29 05:02:03;;;;;;;55.73;8.20;;;14.70;54.30;;;;;;5068036;28;20223;-91
2023/03/29 05:04:32;;;;;;;28.63;6.60;;;14.70;54.30;;;;;;5065608;28;20209;-91
2023/03/29 05:07:00;;;;;;;32.00;7.30;;;14.70;54.30;;;;;;5049371;28;20263;-90
2023/03/29 05:09:28;;;;;;;29.17;6.23;;;14.80;54.30;;;;;;5049135;28;20199;-89
2023/03/29 05:11:55;;;;;;;33.77;6.83;;;14.70;54.30;;;;;;5064136;28;20246;-90
2023/03/29 05:14:22;;;;;;;31.83;6.90;;;14.80;54.30;;;;;;5068801;28;20205;-91
2023/03/29 05:16:49;;;;;;;29.53;6.57;;;14.80;54.30;;;;;;5068604;28;20294;-90
2023/03/29 05:19:16;;;;;;;49.73;8.87;;;14.80;54.30;;;;;;5068091;28;20195;-91
2023/03/29 05:21:45;;;;;;;26.83;7.17;;;14.80;54.30;;;;;;5063152;28;20731;-90
2023/03/29 05:24:11;;;;;;;30.03;7.23;;;14.70;54.30;;;;;;5048977;28;20204;-91
2023/03/29 05:26:38;;;;;;;27.43;6.83;;;14.80;54.30;;;;;;5048651;28;20215;-91
2023/03/29 05:29:07;;;;;;;29.77;6.83;;;14.80;54.30;;;;;;5050486;28;20269;-90
2023/03/29 05:31:35;;;;;;;32.07;7.23;;;14.80;54.40;;;;;;5051739;28;20210;-90
2023/03/29 05:34:03;;;;;;;49.37;8.27;;;14.80;54.30;;;;;;5049675;28;20208;-90
2023/03/29 05:36:30;;;;;;;33.93;7.00;;;14.80;54.40;;;;;;5069411;28;20199;-90
2023/03/29 05:38:58;;;;;;;28.90;6.80;;;14.90;54.40;;;;;;5070981;28;20651;-91
2023/03/29 05:41:26;;;;;;;32.50;6.83;;;14.80;54.90;;;;;;5072943;28;20226;-90
2023/03/29 05:43:52;;;;;;;33.47;6.63;;;14.80;54.30;;;;;;5069589;28;20206;-92
2023/03/29 05:46:19;;;;;;;34.90;7.40;;;14.80;54.30;;;;;;5058847;28;20206;-91
2023/03/29 05:48:46;;;;;;;42.37;8.13;;;14.80;54.30;;;;;;5072562;28;20207;-90
2023/03/29 05:51:13;;;;;;;28.97;6.50;;;14.80;54.30;;;;;;5071818;28;20211;-90
2023/03/29 05:53:40;;;;;;;34.20;7.23;;;14.80;54.30;;;;;;5072348;28;20294;-90
2023/03/29 05:56:09;;;;;;;28.50;7.03;;;14.80;54.40;;;;;;5070766;28;20206;-90
2023/03/29 05:58:37;;;;;;;29.97;6.83;;;14.80;54.30;;;;;;5072566;28;20581;-90
2023/03/29 06:01:05;;;;;;;31.30;7.07;;;14.80;54.40;;;;;;5072443;28;20195;-90
2023/03/29 06:03:32;;;;;;;29.20;6.67;;;14.80;54.30;;;;;;5072318;28;20233;-91
2023/03/29 06:06:03;;;;;;;31.33;7.00;;;14.80;54.30;;;;;;5071057;28;20300;-91
2023/03/29 06:08:31;;;;;;;37.13;7.90;;;14.80;54.30;;;;;;5070910;28;20207;-93
2023/03/29 06:11:00;;;;;;;29.10;6.70;;;14.80;54.30;;;;;;5072224;28;20276;-91
2023/03/29 06:13:29;;;;;;;23.00;6.07;;;14.80;54.30;;;;;;5059179;28;20218;-93
2023/03/29 06:15:56;;;;;;;28.97;6.37;;;14.90;54.50;;;;;;5053074;28;20192;-92
2023/03/29 06:18:23;;;;;;;23.43;5.83;;;14.90;54.40;;;;;;5066003;28;20207;-92
2023/03/29 06:20:51;;;;;;;30.63;7.33;;;14.80;54.30;;;;;;5072779;28;20298;-93
2023/03/29 06:23:19;;;;;;;36.67;7.30;;;14.80;54.30;;;;;;5072555;28;20231;-94
2023/03/29 06:25:47;;;;;;;29.67;6.53;;;14.90;54.40;;;;;;5072782;28;20202;-93
2023/03/29 06:28:15;;;;;;;30.90;7.23;;;14.90;54.40;;;;;;5069769;28;20205;-93
2023/03/29 06:30:47;;;;;;;39.43;7.30;;;14.80;54.30;;;;;;5071442;28;20261;-94
2023/03/29 06:33:15;;;;;;;31.67;7.23;;;14.90;54.50;;;;;;5072392;28;20218;-94
2023/03/29 06:35:44;;;;;;;38.53;7.73;;;14.90;54.40;;;;;;5072573;28;20206;-94
2023/03/29 06:38:11;;;;;;;39.17;7.73;;;14.90;54.50;;;;;;5069725;28;20230;-95
2023/03/29 06:40:39;;;;;;;34.53;6.53;;;14.90;54.50;;;;;;5072370;28;20199;-96
2023/03/29 06:43:07;;;;;;;47.73;7.80;;;14.90;54.50;;;;;;5072235;28;20227;-96
2023/03/29 06:45:36;;;;;;;41.30;7.63;;;14.90;54.50;;;;;;5067031;28;20207;-94
2023/03/29 06:48:10;;;;;;;69.20;10.00;;;14.90;54.60;;;;;;5053191;28;20221;-95
2023/03/29 06:50:37;;;;;;;41.03;7.70;;;14.90;54.60;;;;;;5064081;28;20195;-95
2023/03/29 06:55:46;;;;;;;39.05;7.75;;;14.90;54.50;;;;;;5051600;28;20456;-94
2023/03/29 06:58:14;;;;;;;34.00;7.17;;;14.90;54.70;;;;;;5060027;28;20208;-95
2023/03/29 07:01:07;;;;;;;40.40;8.07;;;14.90;54.70;;;;;;5062417;28;20290;-94
2023/03/29 07:03:40;;;;;;;35.67;7.10;;;14.90;54.70;;;;;;5061099;28;20239;-94
2023/03/29 07:06:10;;;;;;;35.40;7.33;;;14.90;54.60;;;;;;5071996;28;20234;-94
2023/03/29 07:08:42;;;;;;;41.00;7.57;;;15.00;54.60;;;;;;5069863;28;20204;-94
2023/03/29 07:11:11;;;;;;;37.27;7.63;;;15.00;54.70;;;;;;5071901;28;20241;-94
2023/03/29 07:13:38;;;;;;;36.90;7.63;;;15.00;54.60;;;;;;5070925;28;20293;-94
2023/03/29 07:16:07;;;;;;;38.83;7.60;;;14.90;54.60;;;;;;5069983;28;20208;-95
2023/03/29 07:18:36;;;;;;;44.77;8.03;;;14.90;54.60;;;;;;5071584;28;20228;-95
2023/03/29 07:21:03;;;;;;;43.13;7.73;;;15.00;54.60;;;;;;5069735;28;20200;-93
2023/03/29 07:23:31;;;;;;;28.97;6.43;;;15.00;54.60;;;;;;5071489;28;20778;-94
2023/03/29 07:25:59;;;;;;;37.57;7.27;;;15.00;54.70;;;;;;5071367;28;20203;-94
2023/03/29 07:28:26;;;;;;;48.93;8.37;;;15.00;54.60;;;;;;5071055;28;20203;-94
2023/03/29 07:31:00;;;;;;;42.83;8.23;;;15.00;54.70;;;;;;5070712;28;20208;-94
2023/03/29 07:33:39;;;;;;;49.10;8.23;;;15.00;54.60;;;;;;5072529;28;20212;-95
2023/03/29 07:36:10;;;;;;;35.27;7.53;;;15.00;54.70;;;;;;5072283;28;20209;-93
2023/03/29 07:38:40;;;;;;;35.30;7.43;;;15.00;54.70;;;;;;5073287;28;20206;-95
2023/03/29 07:41:09;;;;;;;42.73;7.90;;;15.00;54.60;;;;;;5073108;28;20220;-95
2023/03/29 07:43:37;;;;;;;33.03;7.40;;;15.00;54.70;;;;;;5073870;28;20695;-94
2023/03/29 07:46:08;;;;;;;33.57;6.90;;;15.00;54.60;;;;;;5072684;28;20700;-94
2023/03/29 07:48:39;;;;;;;36.90;7.30;;;15.00;54.60;;;;;;5071391;28;20215;-94
2023/03/29 07:51:07;;;;;;;40.13;7.33;;;15.00;54.60;;;;;;5071509;28;20257;-94
2023/03/29 07:53:34;;;;;;;36.87;7.07;;;15.00;54.70;;;;;;5074911;28;20249;-94
2023/03/29 07:56:01;;;;;;;28.20;7.43;;;15.00;55.20;;;;;;5075516;28;20207;-95
2023/03/29 07:58:29;;;;;;;36.07;9.43;;;15.00;54.70;;;;;;5073190;28;20192;-94
2023/03/29 08:00:58;;;;;;;45.43;10.17;;;15.10;54.70;;;;;;5070953;28;20203;-95
2023/03/29 08:03:26;;;;;;;46.40;10.23;;;15.10;54.80;;;;;;5074386;28;20230;-96
2023/03/29 08:06:01;;;;;;;48.67;11.17;;;15.10;54.80;;;;;;5057755;28;20218;-96
2023/03/29 08:08:31;;;;;;;50.70;9.60;;;15.10;54.80;;;;;;5065795;28;20275;-94
2023/03/29 08:11:06;;;;;;;54.20;10.80;;;15.10;54.80;;;;;;5073638;28;20231;-93
2023/03/29 08:13:33;;;;;;;42.37;10.47;;;15.10;54.80;;;;;;5073035;28;20245;-96
2023/03/29 08:16:09;;;;;;;42.87;10.50;;;15.10;54.70;;;;;;5072866;28;20230;-95
2023/03/29 08:18:36;;;;;;;42.17;10.43;;;15.10;54.80;;;;;;5059593;28;20213;-92
2023/03/29 08:21:05;;;;;;;43.83;10.43;;;15.20;54.90;;;;;;5070068;28;20213;-93
2023/03/29 08:23:31;;;;;;;64.13;12.43;;;15.10;54.80;;;;;;5068500;28;20238;-89
2023/03/29 08:25:58;;;;;;;43.73;9.73;;;15.20;55.50;;;;;;5072102;28;20300;-95
2023/03/29 08:28:26;;;;;;;38.47;9.67;;;15.20;54.90;;;;;;5070367;28;20199;-91
2023/03/29 08:30:53;;;;;;;49.53;10.53;;;15.20;54.90;;;;;;5069354;28;20207;-90
2023/03/29 08:33:21;;;;;;;41.87;10.23;;;15.30;55.00;;;;;;5068271;28;20210;-92
2023/03/29 08:35:51;;;;;;;42.70;10.40;;;15.20;54.90;;;;;;5069988;28;20310;-93
2023/03/29 08:38:20;;;;;;;45.43;9.43;;;15.30;55.10;;;;;;5070741;28;20205;-95
2023/03/29 08:40:48;;;;;;;36.87;8.87;;;15.30;55.00;;;;;;5070483;28;20559;-94
2023/03/29 08:43:24;;;;;;;51.50;10.93;;;15.30;55.00;;;;;;5070653;28;20600;-94
2023/03/29 08:46:06;;;;;;;58.40;9.70;;;15.30;55.10;;;;;;5069989;28;20221;-95
2023/03/29 08:48:39;;;;;;;47.77;9.50;;;15.30;55.10;;;;;;5050622;28;20193;-96
2023/03/29 08:51:20;;;;;;;49.40;9.83;;;15.30;55.10;;;;;;5050441;28;20242;-93
2023/03/29 08:53:52;;;;;;;50.73;9.50;;;15.30;55.10;;;;;;5066668;28;20722;-94
2023/03/29 08:56:25;;;;;;;41.73;8.93;;;15.30;55.00;;;;;;5070355;28;20210;-93
2023/03/29 08:58:53;;;;;;;40.50;9.50;;;15.40;55.10;;;;;;5064060;28;20194;-93
2023/03/29 09:01:22;;;;;;;42.77;8.70;;;15.40;55.10;;;;;;5070106;28;20686;-93
2023/03/29 09:04:00;;;;;;;60.83;10.93;;;15.50;55.20;;;;;;5070582;28;20242;-92
2023/03/29 09:06:27;;;;;;;43.10;9.10;;;15.40;55.10;;;;;;5070213;28;20203;-93
2023/03/29 09:08:56;;;;;;;39.30;8.60;;;15.40;55.10;;;;;;5070244;28;20213;-91
2023/03/29 09:11:41;;;;;;;37.97;8.47;;;15.50;55.20;;;;;;5069057;28;20588;-92
2023/03/29 09:14:23;;;;;;;44.67;8.77;;;15.40;55.30;;;;;;5070239;28;20210;-93
2023/03/29 09:16:57;;;;;;;38.27;8.67;;;15.40;55.20;;;;;;5068868;28;20413;-92
2023/03/29 09:19:33;;;;;;;40.53;8.27;;;15.50;55.20;;;;;;5069763;28;20205;-93
2023/03/29 09:22:09;;;;;;;41.63;9.43;;;15.50;55.20;;;;;;5069567;28;20203;-92
2023/03/29 09:24:58;;;;;;;39.43;8.53;;;15.50;55.30;;;;;;5068634;28;20253;-93
2023/03/29 09:27:30;;;;;;;47.13;8.67;;;15.50;55.30;;;;;;5069732;28;20210;-93
2023/03/29 09:30:15;;;;;;;69.53;10.93;;;15.50;55.20;;;;;;5068223;28;20290;-93
2023/03/29 09:32:49;;;;;;;38.60;8.77;;;15.50;55.20;;;;;;5069038;28;20238;-92
2023/03/29 09:35:24;;;;;;;40.07;8.20;;;15.50;55.80;;;;;;5068305;28;20212;-92
2023/03/29 09:38:08;;;;;;;25.63;7.67;;;15.50;55.20;;;;;;5085215;28;20278;-96
2023/03/29 09:40:42;;;;;;;40.53;9.10;;;15.50;55.20;;;;;;5075129;28;20204;-88
2023/03/29 09:43:13;;;;;;;46.07;8.97;;;15.60;55.30;;;;;;5067201;28;20239;-88
2023/03/29 09:45:42;;;;;;;46.83;8.83;;;15.60;55.30;;;;;;5068515;28;20199;-86
2023/03/29 09:48:13;;;;;;;40.17;8.77;;;15.60;55.30;;;;;;5065771;28;20814;-85
2023/03/29 09:50:42;;;;;;;39.73;8.97;;;15.60;55.30;;;;;;5062393;28;20192;-86
2023/03/29 09:53:13;;;;;;;80.57;11.57;;;15.60;55.40;;;;;;5056065;28;20211;-89
2023/03/29 09:55:44;;;;;;;45.87;9.10;;;15.60;55.40;;;;;;5061822;28;20218;-90
2023/03/29 09:58:14;;;;;;;31.57;7.93;;;15.70;55.50;;;;;;5063217;28;20215;-85
2023/03/29 10:00:41;;;;;;;26.23;7.50;;;15.70;55.50;;;;;;5065290;28;20203;-84
2023/03/29 10:03:09;;;;;;;37.47;8.20;;;15.70;55.50;;;;;;5067055;28;20220;-89
2023/03/29 10:05:37;;;;;;;39.90;9.00;;;15.70;55.50;;;;;;5067666;28;20341;-87
2023/03/29 10:08:16;;;;;;;40.23;9.13;;;15.80;55.60;;;;;;5066936;28;20284;-88
2023/03/29 10:10:45;;;;;;;64.93;10.20;;;15.80;55.70;;;;;;5064657;28;20230;-90
2023/03/29 10:13:16;;;;;;;44.70;8.37;;;15.80;55.60;;;;;;5047669;28;20747;-89
2023/03/29 10:15:43;;;;;;;50.37;9.67;;;15.80;55.60;;;;;;5048607;28;20222;-88
2023/03/29 10:18:15;;;;;;;60.97;10.20;;;15.90;55.70;;;;;;5064755;28;20204;-90
2023/03/29 10:20:42;;;;;;;37.37;7.97;;;16.00;55.80;;;;;;5055559;28;20208;-87
2023/03/29 10:23:17;;;;;;;39.33;8.03;;;15.90;55.70;;;;;;5068378;28;20707;-91
2023/03/29 10:25:46;;;;;;;50.47;8.57;;;15.90;55.70;;;;;;5070421;28;20204;-94
2023/03/29 10:28:17;;;;;;;28.87;7.13;;;16.00;55.70;;;;;;5072247;28;20290;-94
2023/03/29 10:30:47;;;;;;;65.93;10.20;;;15.90;55.70;;;;;;5069441;28;20257;-94
2023/03/29 10:33:40;;;;;;;94.53;12.43;;;16.00;55.70;;;;;;5065443;28;20704;-91
2023/03/29 10:36:09;;;;;;;67.77;10.23;;;16.10;55.80;;;;;;5064387;28;20678;-94
2023/03/29 10:38:38;;;;;;;54.40;9.27;;;16.00;55.70;;;;;;5070805;28;20228;-94
2023/03/29 10:41:10;;;;;;;42.10;8.20;;;16.10;55.70;;;;;;5071983;28;20215;-96
2023/03/29 10:43:38;;;;;;;59.80;10.00;;;16.10;55.80;;;;;;5071264;28;20222;-93
2023/03/29 10:46:18;;;;;;;39.40;7.83;;;16.10;55.80;;;;;;5072294;28;20595;-91
2023/03/29 10:48:48;;;;;;;25.93;6.57;;;16.10;55.80;;;;;;5071267;28;20228;-93
2023/03/29 10:51:18;;;;;;;47.30;8.33;;;16.10;55.80;;;;;;5070285;28;20304;-92
2023/03/29 10:53:46;;;;;;;41.90;7.63;;;16.20;55.80;;;;;;5071327;28;20736;-91
2023/03/29 10:56:29;;;;;;;28.53;7.07;;;16.20;55.80;;;;;;5068918;28;20214;-94
2023/03/29 10:59:17;;;;;;;38.23;7.57;;;16.20;56.00;;;;;;5063339;28;20233;-95
2023/03/29 11:01:57;;;;;;;44.20;8.00;;;16.30;56.00;;;;;;5071500;28;20303;-95
2023/03/29 11:04:34;;;;;;;44.07;7.77;;;16.30;56.00;;;;;;5062010;28;20317;-96
2023/03/29 11:07:25;;;;;;;55.03;8.80;;;16.30;56.00;;;;;;5072086;28;20238;-94
2023/03/29 11:10:04;;;;;;;59.40;8.70;;;16.30;56.00;;;;;;5066487;28;20307;-92
2023/03/29 11:12:38;;;;;;;34.77;7.27;;;16.30;56.00;;;;;;5050509;28;20591;-91
2023/03/29 11:15:21;;;;;;;34.93;7.13;;;16.40;56.10;;;;;;5053536;28;20531;-95
2023/03/29 11:17:59;;;;;;;48.13;8.10;;;16.40;56.00;;;;;;5056470;28;20231;-92
2023/03/29 11:20:37;;;;;;;41.13;7.60;;;16.40;56.00;;;;;;5070266;28;20204;-90
2023/03/29 11:23:16;;;;;;;35.30;7.30;;;16.50;56.10;;;;;;5071439;28;20315;-93
2023/03/29 11:25:58;;;;;;;49.33;8.33;;;16.60;56.20;;;;;;5073200;28;20210;-96
2023/03/29 11:28:35;;;;;;;47.73;8.27;;;16.60;56.20;;;;;;5070180;28;20209;-89
2023/03/29 11:31:07;;;;;;;38.57;7.30;;;16.50;56.10;;;;;;5070916;28;20204;-93
2023/03/29 11:33:47;;;;;;;37.23;6.97;;;16.60;56.10;;;;;;5070032;28;20200;-96
2023/03/29 11:36:20;;;;;;;27.00;6.33;;;16.60;56.20;;;;;;5071140;28;20199;-94
2023/03/29 11:39:04;;;;;;;35.30;7.57;;;16.70;56.20;;;;;;5068938;28;20318;-93
2023/03/29 11:41:34;;;;;;;38.37;6.57;;;16.60;56.20;;;;;;5069074;28;20222;-93
2023/03/29 11:44:10;;;;;;;43.50;7.47;;;16.70;56.10;;;;;;5071505;28;20406;-94
2023/03/29 11:46:40;;;;;;;38.33;7.10;;;16.60;56.10;;;;;;5072122;28;20313;-87
2023/03/29 11:49:14;;;;;;;38.90;7.20;;;16.70;56.10;;;;;;5070422;28;20942;-93
2023/03/29 11:51:44;;;;;;;36.00;7.27;;;16.70;56.20;;;;;;5071619;28;20308;-95
2023/03/29 11:54:18;;;;;;;41.23;7.50;;;16.70;56.10;;;;;;5069593;28;20579;-95
2023/03/29 11:56:51;;;;;;;37.50;7.13;;;16.80;56.80;;;;;;5072120;28;20202;-94
2023/03/29 11:59:26;;;;;;;33.90;6.40;;;16.80;56.20;;;;;;5071057;28;20218;-92
2023/03/29 12:01:56;;;;;;;57.10;8.63;;;16.80;56.20;;;;;;5069728;28;20313;-91
2023/03/29 12:04:30;;;;;;;38.70;7.53;;;16.80;56.20;;;;;;5069359;28;20250;-92
2023/03/29 12:07:07;;;;;;;28.37;6.53;;;16.90;56.30;;;;;;5077032;28;20259;-96
2023/03/29 12:09:39;;;;;;;31.27;6.40;;;16.80;56.20;;;;;;5078019;28;20314;-95
2023/03/29 12:12:10;;;;;;;27.23;6.97;;;16.80;56.20;;;;;;5070974;28;20208;-96
2023/03/29 12:14:53;;;;;;;36.27;6.77;;;16.90;56.20;;;;;;5069798;28;20212;-95
2023/03/29 12:17:24;;;;;;;38.27;6.50;;;16.90;56.30;;;;;;5069030;28;20213;-91
2023/03/29 12:20:04;;;;;;;37.07;7.40;;;16.90;56.30;;;;;;5070051;28;20207;-94
2023/03/29 12:22:32;;;;;;;47.40;8.20;;;16.90;56.30;;;;;;5069369;28;20221;-91
2023/03/29 12:25:02;;;;;;;38.23;7.57;;;16.90;56.20;;;;;;5070481;28;20240;-95
2023/03/29 12:27:33;;;;;;;38.50;7.03;;;16.90;56.20;;;;;;5067942;28;20397;-95
2023/03/29 12:30:23;;;;;;;44.87;8.00;;;17.00;56.30;;;;;;5068056;28;20190;-95
2023/03/29 12:33:10;;;;;;;50.47;8.63;;;17.00;56.40;;;;;;5071481;28;20227;-93
2023/03/29 12:35:50;;;;;;;38.53;6.87;;;17.00;56.40;;;;;;5058441;28;20223;-92
2023/03/29 12:38:20;;;;;;;32.90;7.37;;;17.00;56.30;;;;;;5050293;28;20206;-93
2023/03/29 12:40:54;;;;;;;39.03;7.10;;;17.00;56.40;;;;;;5065996;28;20203;-92
2023/03/29 12:43:25;;;;;;;39.33;7.13;;;17.00;56.30;;;;;;5068343;28;20212;-92
2023/03/29 12:45:59;;;;;;;33.00;6.13;;;17.10;57.00;;;;;;5068408;28;20207;-92
2023/03/29 12:48:30;;;;;;;36.03;6.63;;;17.10;56.40;;;;;;5070230;28;20241;-94
2023/03/29 12:51:01;;;;;;;49.33;8.10;;;17.10;56.40;;;;;;5068142;28;20234;-94
2023/03/29 12:53:32;;;;;;;50.70;8.10;;;17.10;56.40;;;;;;5065657;28;20209;-92
2023/03/29 12:56:12;;;;;;;33.47;6.97;;;17.10;56.40;;;;;;5071103;28;20189;-92